Terminal Aerodrome Forecast
Issued by NWS

Home | Current Version | Previous Version | Text Only | Print | Product List | Glossary On
Versions: 1 2 3 4 5 6 7 8 9 10 11 12 13 14
000
FTUS45 KTFX 050534
TAFLWT
TAF
KLWT 050534Z 0506/0606 13006KT P6SM SCT025 BKN040
      TEMPO 0506/0510 VRB06KT 5SM -RA BR BKN015 OVC035
     FM052000 03007KT P6SM BKN050 PROB30 0522/0602 P6SM -TSRA
      OVC025CB=

USA.gov is the U.S. government's official web portal to all federal, state and local government web resources and services.